sensor_id;sensor_type;location;lat;lon;timestamp;P1;durP1;ratioP1;P2;durP2;ratioP2
17496;SDS011;62150;43.582;1.456;2023-11-19T04:23:13;11.87;;;5.97;;
17496;SDS011;62150;43.582;1.456;2023-11-19T04:25:41;15.10;;;7.20;;
17496;SDS011;62150;43.582;1.456;2023-11-19T04:28:08;13.80;;;7.33;;
17496;SDS011;62150;43.582;1.456;2023-11-19T04:30:36;14.23;;;7.67;;
17496;SDS011;62150;43.582;1.456;2023-11-19T04:33:04;15.27;;;8.10;;
17496;SDS011;62150;43.582;1.456;2023-11-19T04:35:31;15.97;;;8.67;;
17496;SDS011;62150;43.582;1.456;2023-11-19T04:37:58;16.03;;;8.47;;
17496;SDS011;62150;43.582;1.456;2023-11-19T04:40:27;13.53;;;8.43;;
17496;SDS011;62150;43.582;1.456;2023-11-19T04:42:55;15.37;;;8.30;;
17496;SDS011;62150;43.582;1.456;2023-11-19T04:45:22;13.80;;;8.40;;
17496;SDS011;62150;43.582;1.456;2023-11-19T04:47:50;14.73;;;8.20;;
17496;SDS011;62150;43.582;1.456;2023-11-19T04:50:17;14.77;;;8.50;;
17496;SDS011;62150;43.582;1.456;2023-11-19T04:52:45;14.93;;;8.30;;
17496;SDS011;62150;43.582;1.456;2023-11-19T04:55:12;15.90;;;8.40;;
17496;SDS011;62150;43.582;1.456;2023-11-19T04:57:41;15.00;;;8.73;;
17496;SDS011;62150;43.582;1.456;2023-11-19T05:00:09;15.47;;;9.10;;
17496;SDS011;62150;43.582;1.456;2023-11-19T05:02:38;15.03;;;8.97;;
17496;SDS011;62150;43.582;1.456;2023-11-19T05:05:06;16.50;;;8.90;;
17496;SDS011;62150;43.582;1.456;2023-11-19T05:07:34;15.27;;;9.20;;
17496;SDS011;62150;43.582;1.456;2023-11-19T05:10:05;14.40;;;8.53;;
17496;SDS011;62150;43.582;1.456;2023-11-19T05:12:33;15.00;;;8.67;;
17496;SDS011;62150;43.582;1.456;2023-11-19T05:15:02;14.77;;;8.53;;
17496;SDS011;62150;43.582;1.456;2023-11-19T05:17:39;15.40;;;8.60;;
17496;SDS011;62150;43.582;1.456;2023-11-19T05:20:07;14.60;;;8.37;;
17496;SDS011;62150;43.582;1.456;2023-11-19T05:22:38;14.57;;;8.13;;
17496;SDS011;62150;43.582;1.456;2023-11-19T05:25:06;14.00;;;8.17;;
17496;SDS011;62150;43.582;1.456;2023-11-19T05:27:36;15.43;;;8.13;;
17496;SDS011;62150;43.582;1.456;2023-11-19T05:30:06;14.27;;;8.10;;
17496;SDS011;62150;43.582;1.456;2023-11-19T05:32:40;14.37;;;7.57;;
17496;SDS011;62150;43.582;1.456;2023-11-19T05:35:08;14.17;;;7.63;;
17496;SDS011;62150;43.582;1.456;2023-11-19T05:37:37;13.70;;;7.77;;
17496;SDS011;62150;43.582;1.456;2023-11-19T05:40:05;14.07;;;7.80;;
17496;SDS011;62150;43.582;1.456;2023-11-19T05:42:39;16.03;;;8.47;;
17496;SDS011;62150;43.582;1.456;2023-11-19T05:45:09;13.87;;;8.10;;
17496;SDS011;62150;43.582;1.456;2023-11-19T05:47:37;13.20;;;7.27;;
17496;SDS011;62150;43.582;1.456;2023-11-19T05:50:05;12.33;;;7.37;;
17496;SDS011;62150;43.582;1.456;2023-11-19T05:52:33;13.97;;;6.93;;
17496;SDS011;62150;43.582;1.456;2023-11-19T05:55:00;13.60;;;6.87;;
17496;SDS011;62150;43.582;1.456;2023-11-19T05:57:29;13.13;;;6.80;;
17496;SDS011;62150;43.582;1.456;2023-11-19T05:59:59;14.10;;;6.80;;
17496;SDS011;62150;43.582;1.456;2023-11-19T06:02:30;13.13;;;6.83;;
17496;SDS011;62150;43.582;1.456;2023-11-19T06:04:58;12.90;;;6.43;;
17496;SDS011;62150;43.582;1.456;2023-11-19T06:07:26;12.33;;;6.67;;
17496;SDS011;62150;43.582;1.456;2023-11-19T06:09:54;12.50;;;6.73;;
17496;SDS011;62150;43.582;1.456;2023-11-19T06:12:21;12.53;;;7.00;;
17496;SDS011;62150;43.582;1.456;2023-11-19T06:14:49;12.67;;;6.73;;
17496;SDS011;62150;43.582;1.456;2023-11-19T06:17:16;12.30;;;6.50;;
17496;SDS011;62150;43.582;1.456;2023-11-19T06:19:45;12.70;;;6.80;;
17496;SDS011;62150;43.582;1.456;2023-11-19T06:22:13;14.10;;;6.43;;
17496;SDS011;62150;43.582;1.456;2023-11-19T06:24:41;12.50;;;6.73;;
17496;SDS011;62150;43.582;1.456;2023-11-19T06:27:09;12.53;;;6.80;;
17496;SDS011;62150;43.582;1.456;2023-11-19T06:29:36;12.97;;;6.73;;
17496;SDS011;62150;43.582;1.456;2023-11-19T06:32:06;12.50;;;7.00;;
17496;SDS011;62150;43.582;1.456;2023-11-19T06:34:34;13.00;;;6.77;;
17496;SDS011;62150;43.582;1.456;2023-11-19T06:37:03;14.20;;;7.20;;
17496;SDS011;62150;43.582;1.456;2023-11-19T06:39:30;13.10;;;6.90;;
17496;SDS011;62150;43.582;1.456;2023-11-19T06:42:00;13.60;;;7.20;;
17496;SDS011;62150;43.582;1.456;2023-11-19T06:44:28;13.93;;;7.13;;
17496;SDS011;62150;43.582;1.456;2023-11-19T06:46:55;12.60;;;6.43;;
17496;SDS011;62150;43.582;1.456;2023-11-19T06:49:23;11.37;;;6.57;;
17496;SDS011;62150;43.582;1.456;2023-11-19T06:51:50;12.90;;;6.47;;
17496;SDS011;62150;43.582;1.456;2023-11-19T06:54:19;11.87;;;6.40;;
17496;SDS011;62150;43.582;1.456;2023-11-19T06:56:46;11.97;;;6.27;;
17496;SDS011;62150;43.582;1.456;2023-11-19T06:59:15;11.90;;;6.50;;
17496;SDS011;62150;43.582;1.456;2023-11-19T07:01:42;13.27;;;6.40;;
17496;SDS011;62150;43.582;1.456;2023-11-19T07:04:10;11.53;;;6.63;;
17496;SDS011;62150;43.582;1.456;2023-11-19T07:06:38;12.10;;;6.10;;
17496;SDS011;62150;43.582;1.456;2023-11-19T07:09:07;12.97;;;7.00;;
17496;SDS011;62150;43.582;1.456;2023-11-19T07:11:40;12.23;;;6.60;;
17496;SDS011;62150;43.582;1.456;2023-11-19T07:14:10;13.13;;;6.93;;
17496;SDS011;62150;43.582;1.456;2023-11-19T07:16:38;12.70;;;6.77;;
17496;SDS011;62150;43.582;1.456;2023-11-19T07:19:05;12.10;;;6.30;;
17496;SDS011;62150;43.582;1.456;2023-11-19T07:21:33;12.17;;;6.57;;
17496;SDS011;62150;43.582;1.456;2023-11-19T07:24:04;12.37;;;6.67;;
17496;SDS011;62150;43.582;1.456;2023-11-19T07:26:32;13.00;;;7.20;;
17496;SDS011;62150;43.582;1.456;2023-11-19T07:29:01;13.10;;;7.13;;
17496;SDS011;62150;43.582;1.456;2023-11-19T07:31:32;12.90;;;7.00;;
17496;SDS011;62150;43.582;1.456;2023-11-19T07:34:00;12.70;;;6.97;;
17496;SDS011;62150;43.582;1.456;2023-11-19T07:36:27;14.73;;;7.20;;
17496;SDS011;62150;43.582;1.456;2023-11-19T07:38:56;13.30;;;7.17;;
17496;SDS011;62150;43.582;1.456;2023-11-19T07:41:24;12.33;;;6.97;;
17496;SDS011;62150;43.582;1.456;2023-11-19T07:43:51;13.67;;;7.20;;
17496;SDS011;62150;43.582;1.456;2023-11-19T07:46:21;12.97;;;7.03;;
17496;SDS011;62150;43.582;1.456;2023-11-19T07:48:48;12.33;;;6.90;;
17496;SDS011;62150;43.582;1.456;2023-11-19T07:51:16;12.87;;;6.93;;
17496;SDS011;62150;43.582;1.456;2023-11-19T07:53:43;13.17;;;6.73;;
17496;SDS011;62150;43.582;1.456;2023-11-19T07:56:11;14.93;;;6.93;;
17496;SDS011;62150;43.582;1.456;2023-11-19T07:58:38;12.40;;;6.63;;
17496;SDS011;62150;43.582;1.456;2023-11-19T08:01:07;12.53;;;6.77;;
17496;SDS011;62150;43.582;1.456;2023-11-19T08:03:36;13.60;;;7.37;;
17496;SDS011;62150;43.582;1.456;2023-11-19T08:06:08;15.33;;;7.13;;
17496;SDS011;62150;43.582;1.456;2023-11-19T08:08:36;13.53;;;6.93;;
17496;SDS011;62150;43.582;1.456;2023-11-19T08:11:04;12.40;;;6.83;;
17496;SDS011;62150;43.582;1.456;2023-11-19T08:13:32;12.50;;;7.00;;
17496;SDS011;62150;43.582;1.456;2023-11-19T08:15:59;14.10;;;7.20;;
17496;SDS011;62150;43.582;1.456;2023-11-19T08:18:27;12.80;;;6.87;;
17496;SDS011;62150;43.582;1.456;2023-11-19T08:20:56;13.70;;;6.83;;
17496;SDS011;62150;43.582;1.456;2023-11-19T08:23:25;13.30;;;7.40;;
17496;SDS011;62150;43.582;1.456;2023-11-19T08:25:53;12.63;;;7.40;;
17496;SDS011;62150;43.582;1.456;2023-11-19T08:28:21;13.53;;;7.20;;
17496;SDS011;62150;43.582;1.456;2023-11-19T08:30:48;12.10;;;6.80;;
17496;SDS011;62150;43.582;1.456;2023-11-19T08:33:16;14.20;;;7.63;;
17496;SDS011;62150;43.582;1.456;2023-11-19T08:35:43;12.70;;;6.87;;
17496;SDS011;62150;43.582;1.456;2023-11-19T08:38:13;13.87;;;7.80;;
17496;SDS011;62150;43.582;1.456;2023-11-19T08:40:41;13.23;;;7.23;;
17496;SDS011;62150;43.582;1.456;2023-11-19T08:43:08;14.43;;;7.57;;
17496;SDS011;62150;43.582;1.456;2023-11-19T08:45:36;13.87;;;7.70;;
17496;SDS011;62150;43.582;1.456;2023-11-19T08:48:04;14.80;;;8.17;;
17496;SDS011;62150;43.582;1.456;2023-11-19T08:50:33;15.57;;;8.60;;
17496;SDS011;62150;43.582;1.456;2023-11-19T08:53:02;16.57;;;10.00;;
17496;SDS011;62150;43.582;1.456;2023-11-19T08:55:39;15.47;;;9.13;;
17496;SDS011;62150;43.582;1.456;2023-11-19T08:58:07;16.73;;;9.43;;
17496;SDS011;62150;43.582;1.456;2023-11-19T09:00:34;15.67;;;9.30;;
17496;SDS011;62150;43.582;1.456;2023-11-19T09:03:04;15.20;;;8.97;;
17496;SDS011;62150;43.582;1.456;2023-11-19T09:05:34;16.10;;;9.20;;
17496;SDS011;62150;43.582;1.456;2023-11-19T09:08:04;16.13;;;8.70;;
17496;SDS011;62150;43.582;1.456;2023-11-19T09:10:33;15.80;;;8.93;;
17496;SDS011;62150;43.582;1.456;2023-11-19T09:13:02;16.43;;;9.07;;
17496;SDS011;62150;43.582;1.456;2023-11-19T09:15:30;16.27;;;9.40;;
17496;SDS011;62150;43.582;1.456;2023-11-19T09:18:00;16.60;;;9.13;;
17496;SDS011;62150;43.582;1.456;2023-11-19T09:20:29;15.37;;;9.03;;
17496;SDS011;62150;43.582;1.456;2023-11-19T09:23:02;17.10;;;9.47;;
17496;SDS011;62150;43.582;1.456;2023-11-19T09:25:31;14.63;;;8.53;;
17496;SDS011;62150;43.582;1.456;2023-11-19T09:27:59;15.03;;;8.10;;
17496;SDS011;62150;43.582;1.456;2023-11-19T09:30:28;14.37;;;8.13;;
17496;SDS011;62150;43.582;1.456;2023-11-19T09:32:55;13.00;;;6.80;;
17496;SDS011;62150;43.582;1.456;2023-11-19T09:35:23;12.20;;;6.27;;
17496;SDS011;62150;43.582;1.456;2023-11-19T09:37:50;11.63;;;5.53;;
17496;SDS011;62150;43.582;1.456;2023-11-19T09:40:18;10.77;;;5.40;;
17496;SDS011;62150;43.582;1.456;2023-11-19T09:42:45;10.30;;;5.30;;
17496;SDS011;62150;43.582;1.456;2023-11-19T09:45:14;12.00;;;4.83;;
17496;SDS011;62150;43.582;1.456;2023-11-19T09:47:44;11.47;;;5.33;;
17496;SDS011;62150;43.582;1.456;2023-11-19T09:50:14;10.43;;;5.07;;
17496;SDS011;62150;43.582;1.456;2023-11-19T09:52:44;12.53;;;5.33;;
17496;SDS011;62150;43.582;1.456;2023-11-19T09:55:11;10.57;;;5.20;;
17496;SDS011;62150;43.582;1.456;2023-11-19T09:57:39;11.17;;;5.10;;
17496;SDS011;62150;43.582;1.456;2023-11-19T10:00:09;10.90;;;5.03;;
17496;SDS011;62150;43.582;1.456;2023-11-19T10:02:40;10.40;;;5.37;;
17496;SDS011;62150;43.582;1.456;2023-11-19T10:05:12;10.73;;;5.50;;
17496;SDS011;62150;43.582;1.456;2023-11-19T10:07:40;11.80;;;5.10;;
17496;SDS011;62150;43.582;1.456;2023-11-19T10:10:09;11.50;;;5.20;;
17496;SDS011;62150;43.582;1.456;2023-11-19T10:12:43;11.70;;;5.77;;
17496;SDS011;62150;43.582;1.456;2023-11-19T10:15:14;12.97;;;5.80;;
17496;SDS011;62150;43.582;1.456;2023-11-19T10:17:47;11.33;;;6.00;;
17496;SDS011;62150;43.582;1.456;2023-11-19T10:20:16;13.40;;;6.27;;
17496;SDS011;62150;43.582;1.456;2023-11-19T10:22:43;12.20;;;6.83;;
17496;SDS011;62150;43.582;1.456;2023-11-19T10:25:21;14.33;;;7.17;;
17496;SDS011;62150;43.582;1.456;2023-11-19T10:27:50;13.70;;;6.97;;
17496;SDS011;62150;43.582;1.456;2023-11-19T10:30:18;13.77;;;7.53;;
17496;SDS011;62150;43.582;1.456;2023-11-19T10:32:50;13.70;;;7.73;;
17496;SDS011;62150;43.582;1.456;2023-11-19T10:35:32;14.40;;;7.50;;
17496;SDS011;62150;43.582;1.456;2023-11-19T10:38:00;12.23;;;6.47;;
17496;SDS011;62150;43.582;1.456;2023-11-19T10:40:39;14.10;;;7.13;;
17496;SDS011;62150;43.582;1.456;2023-11-19T10:43:10;13.50;;;7.20;;
17496;SDS011;62150;43.582;1.456;2023-11-19T10:45:38;13.07;;;6.67;;
17496;SDS011;62150;43.582;1.456;2023-11-19T10:48:06;13.33;;;6.53;;
17496;SDS011;62150;43.582;1.456;2023-11-19T10:50:36;13.67;;;7.70;;
17496;SDS011;62150;43.582;1.456;2023-11-19T10:53:07;14.60;;;7.27;;
17496;SDS011;62150;43.582;1.456;2023-11-19T10:55:35;12.47;;;6.63;;
17496;SDS011;62150;43.582;1.456;2023-11-19T10:58:04;13.90;;;7.80;;
17496;SDS011;62150;43.582;1.456;2023-11-19T11:00:34;11.97;;;6.73;;
17496;SDS011;62150;43.582;1.456;2023-11-19T11:03:08;12.53;;;6.67;;
17496;SDS011;62150;43.582;1.456;2023-11-19T11:05:42;12.23;;;6.70;;
17496;SDS011;62150;43.582;1.456;2023-11-19T11:08:12;13.20;;;6.30;;
17496;SDS011;62150;43.582;1.456;2023-11-19T11:10:42;12.63;;;7.13;;
17496;SDS011;62150;43.582;1.456;2023-11-19T11:13:11;11.60;;;6.40;;
17496;SDS011;62150;43.582;1.456;2023-11-19T11:15:41;11.20;;;5.90;;
17496;SDS011;62150;43.582;1.456;2023-11-19T11:18:09;10.90;;;5.50;;
17496;SDS011;62150;43.582;1.456;2023-11-19T11:20:36;12.83;;;5.93;;
17496;SDS011;62150;43.582;1.456;2023-11-19T11:26:12;10.27;;;5.17;;
17496;SDS011;62150;43.582;1.456;2023-11-19T11:29:09;10.90;;;5.13;;
17496;SDS011;62150;43.582;1.456;2023-11-19T11:31:43;9.67;;;4.60;;
17496;SDS011;62150;43.582;1.456;2023-11-19T11:34:26;11.03;;;4.60;;
17496;SDS011;62150;43.582;1.456;2023-11-19T11:37:06;10.93;;;5.17;;
17496;SDS011;62150;43.582;1.456;2023-11-19T11:39:43;11.57;;;5.20;;
17496;SDS011;62150;43.582;1.456;2023-11-19T11:45:02;10.20;;;4.90;;
17496;SDS011;62150;43.582;1.456;2023-11-19T11:50:54;12.47;;;5.60;;
17496;SDS011;62150;43.582;1.456;2023-11-19T11:53:23;11.30;;;5.70;;
17496;SDS011;62150;43.582;1.456;2023-11-19T11:55:54;10.53;;;5.10;;
17496;SDS011;62150;43.582;1.456;2023-11-19T11:58:31;9.47;;;4.07;;
17496;SDS011;62150;43.582;1.456;2023-11-19T12:01:02;9.07;;;4.50;;
17496;SDS011;62150;43.582;1.456;2023-11-19T12:03:31;10.07;;;4.83;;
17496;SDS011;62150;43.582;1.456;2023-11-19T12:06:00;9.83;;;4.40;;
17496;SDS011;62150;43.582;1.456;2023-11-19T12:08:28;11.30;;;5.90;;
17496;SDS011;62150;43.582;1.456;2023-11-19T12:10:58;10.80;;;5.03;;
17496;SDS011;62150;43.582;1.456;2023-11-19T12:13:47;10.77;;;5.20;;
17496;SDS011;62150;43.582;1.456;2023-11-19T12:16:23;10.03;;;4.83;;
17496;SDS011;62150;43.582;1.456;2023-11-19T12:18:52;12.77;;;5.47;;
17496;SDS011;62150;43.582;1.456;2023-11-19T12:21:27;10.83;;;5.20;;
17496;SDS011;62150;43.582;1.456;2023-11-19T12:23:55;10.63;;;5.37;;
17496;SDS011;62150;43.582;1.456;2023-11-19T12:26:37;11.07;;;5.07;;
17496;SDS011;62150;43.582;1.456;2023-11-19T12:29:05;9.77;;;4.40;;
17496;SDS011;62150;43.582;1.456;2023-11-19T12:31:33;9.00;;;4.43;;
17496;SDS011;62150;43.582;1.456;2023-11-19T12:34:06;10.63;;;4.90;;
17496;SDS011;62150;43.582;1.456;2023-11-19T12:36:37;10.37;;;4.57;;
17496;SDS011;62150;43.582;1.456;2023-11-19T12:39:06;9.63;;;4.60;;
17496;SDS011;62150;43.582;1.456;2023-11-19T12:41:50;10.40;;;4.50;;
17496;SDS011;62150;43.582;1.456;2023-11-19T12:44:19;9.30;;;4.23;;
17496;SDS011;62150;43.582;1.456;2023-11-19T12:46:58;9.30;;;4.20;;
17496;SDS011;62150;43.582;1.456;2023-11-19T12:49:27;9.07;;;4.27;;
17496;SDS011;62150;43.582;1.456;2023-11-19T12:51:54;9.47;;;4.10;;
17496;SDS011;62150;43.582;1.456;2023-11-19T12:54:31;9.07;;;4.13;;
17496;SDS011;62150;43.582;1.456;2023-11-19T12:57:01;8.80;;;3.90;;
17496;SDS011;62150;43.582;1.456;2023-11-19T12:59:30;8.07;;;3.47;;
17496;SDS011;62150;43.582;1.456;2023-11-19T13:01:57;9.90;;;3.67;;
17496;SDS011;62150;43.582;1.456;2023-11-19T13:04:27;7.33;;;3.50;;
17496;SDS011;62150;43.582;1.456;2023-11-19T13:06:56;7.80;;;3.80;;
17496;SDS011;62150;43.582;1.456;2023-11-19T13:09:24;8.90;;;4.00;;
17496;SDS011;62150;43.582;1.456;2023-11-19T13:11:54;8.33;;;3.80;;
17496;SDS011;62150;43.582;1.456;2023-11-19T13:14:35;7.33;;;3.57;;
17496;SDS011;62150;43.582;1.456;2023-11-19T13:17:04;8.97;;;3.73;;
17496;SDS011;62150;43.582;1.456;2023-11-19T13:19:37;6.00;;;3.30;;
17496;SDS011;62150;43.582;1.456;2023-11-19T13:22:04;7.53;;;3.40;;
17496;SDS011;62150;43.582;1.456;2023-11-19T13:24:35;7.70;;;3.00;;
17496;SDS011;62150;43.582;1.456;2023-11-19T13:27:06;5.73;;;3.00;;
17496;SDS011;62150;43.582;1.456;2023-11-19T13:29:36;6.40;;;2.90;;
17496;SDS011;62150;43.582;1.456;2023-11-19T13:32:03;7.63;;;3.20;;
17496;SDS011;62150;43.582;1.456;2023-11-19T13:34:34;6.47;;;2.90;;
17496;SDS011;62150;43.582;1.456;2023-11-19T13:37:05;7.40;;;3.30;;
17496;SDS011;62150;43.582;1.456;2023-11-19T13:39:32;7.63;;;3.07;;
17496;SDS011;62150;43.582;1.456;2023-11-19T13:41:59;7.57;;;3.13;;
17496;SDS011;62150;43.582;1.456;2023-11-19T13:44:27;6.53;;;3.00;;
17496;SDS011;62150;43.582;1.456;2023-11-19T13:46:56;6.23;;;3.30;;
17496;SDS011;62150;43.582;1.456;2023-11-19T13:49:23;6.38;;;3.20;;
17496;SDS011;62150;43.582;1.456;2023-11-19T13:51:51;6.75;;;3.38;;
17496;SDS011;62150;43.582;1.456;2023-11-19T13:54:19;8.27;;;3.40;;
17496;SDS011;62150;43.582;1.456;2023-11-19T13:56:47;8.80;;;3.77;;
17496;SDS011;62150;43.582;1.456;2023-11-19T13:59:14;7.77;;;3.73;;
17496;SDS011;62150;43.582;1.456;2023-11-19T14:01:42;7.93;;;3.40;;
17496;SDS011;62150;43.582;1.456;2023-11-19T14:04:11;8.03;;;3.43;;
17496;SDS011;62150;43.582;1.456;2023-11-19T14:06:38;8.32;;;3.63;;
17496;SDS011;62150;43.582;1.456;2023-11-19T14:09:06;6.78;;;3.30;;
17496;SDS011;62150;43.582;1.456;2023-11-19T14:11:34;8.63;;;3.80;;
17496;SDS011;62150;43.582;1.456;2023-11-19T14:14:02;8.35;;;3.60;;
17496;SDS011;62150;43.582;1.456;2023-11-19T14:16:30;9.63;;;4.15;;
17496;SDS011;62150;43.582;1.456;2023-11-19T14:18:59;6.97;;;3.60;;
17496;SDS011;62150;43.582;1.456;2023-11-19T14:21:28;7.95;;;3.50;;
17496;SDS011;62150;43.582;1.456;2023-11-19T14:23:55;7.37;;;3.70;;
17496;SDS011;62150;43.582;1.456;2023-11-19T14:26:24;8.00;;;3.75;;
17496;SDS011;62150;43.582;1.456;2023-11-19T14:28:51;9.35;;;3.90;;
17496;SDS011;62150;43.582;1.456;2023-11-19T14:31:19;8.18;;;4.15;;
17496;SDS011;62150;43.582;1.456;2023-11-19T14:33:46;8.15;;;3.72;;
17496;SDS011;62150;43.582;1.456;2023-11-19T14:36:14;7.40;;;3.55;;
17496;SDS011;62150;43.582;1.456;2023-11-19T14:38:43;9.90;;;4.30;;
17496;SDS011;62150;43.582;1.456;2023-11-19T14:41:11;8.45;;;3.80;;
17496;SDS011;62150;43.582;1.456;2023-11-19T14:43:38;9.57;;;3.80;;
17496;SDS011;62150;43.582;1.456;2023-11-19T14:46:06;10.25;;;4.00;;
17496;SDS011;62150;43.582;1.456;2023-11-19T14:48:34;8.18;;;3.70;;
17496;SDS011;62150;43.582;1.456;2023-11-19T14:51:02;9.38;;;4.13;;
17496;SDS011;62150;43.582;1.456;2023-11-19T14:53:29;10.95;;;4.10;;
17496;SDS011;62150;43.582;1.456;2023-11-19T14:55:58;8.07;;;3.80;;
17496;SDS011;62150;43.582;1.456;2023-11-19T14:58:26;9.15;;;4.00;;
17496;SDS011;62150;43.582;1.456;2023-11-19T15:00:53;8.15;;;3.88;;
17496;SDS011;62150;43.582;1.456;2023-11-19T15:03:21;9.23;;;3.70;;
17496;SDS011;62150;43.582;1.456;2023-11-19T15:05:48;9.70;;;3.80;;
17496;SDS011;62150;43.582;1.456;2023-11-19T15:08:17;8.10;;;3.53;;
17496;SDS011;62150;43.582;1.456;2023-11-19T15:10:44;6.00;;;3.10;;
17496;SDS011;62150;43.582;1.456;2023-11-19T15:13:13;8.07;;;3.53;;
17496;SDS011;62150;43.582;1.456;2023-11-19T15:15:41;8.18;;;3.38;;
17496;SDS011;62150;43.582;1.456;2023-11-19T15:18:08;6.68;;;3.40;;
17496;SDS011;62150;43.582;1.456;2023-11-19T15:20:36;6.88;;;3.60;;
17496;SDS011;62150;43.582;1.456;2023-11-19T15:23:03;10.77;;;4.13;;
17496;SDS011;62150;43.582;1.456;2023-11-19T15:25:33;7.60;;;3.38;;
17496;SDS011;62150;43.582;1.456;2023-11-19T15:28:01;8.07;;;3.60;;
17496;SDS011;62150;43.582;1.456;2023-11-19T15:30:30;9.77;;;3.80;;
17496;SDS011;62150;43.582;1.456;2023-11-19T15:32:58;6.78;;;3.25;;
17496;SDS011;62150;43.582;1.456;2023-11-19T15:35:26;9.77;;;4.28;;
17496;SDS011;62150;43.582;1.456;2023-11-19T15:37:53;9.63;;;3.50;;
17496;SDS011;62150;43.582;1.456;2023-11-19T15:40:21;8.10;;;3.88;;
17496;SDS011;62150;43.582;1.456;2023-11-19T15:42:49;9.63;;;4.07;;
17496;SDS011;62150;43.582;1.456;2023-11-19T15:45:19;8.02;;;3.60;;
17496;SDS011;62150;43.582;1.456;2023-11-19T15:47:48;7.32;;;3.40;;
17496;SDS011;62150;43.582;1.456;2023-11-19T15:50:16;9.63;;;4.32;;
17496;SDS011;62150;43.582;1.456;2023-11-19T15:52:43;11.13;;;4.18;;
17496;SDS011;62150;43.582;1.456;2023-11-19T15:55:11;11.30;;;4.75;;
17496;SDS011;62150;43.582;1.456;2023-11-19T15:57:38;11.40;;;5.40;;
17496;SDS011;62150;43.582;1.456;2023-11-19T16:00:07;10.80;;;5.00;;
17496;SDS011;62150;43.582;1.456;2023-11-19T16:02:36;9.52;;;4.50;;
17496;SDS011;62150;43.582;1.456;2023-11-19T16:05:05;10.13;;;5.22;;
17496;SDS011;62150;43.582;1.456;2023-11-19T16:07:33;10.75;;;4.90;;
17496;SDS011;62150;43.582;1.456;2023-11-19T16:10:01;8.63;;;4.00;;
17496;SDS011;62150;43.582;1.456;2023-11-19T16:12:30;8.85;;;4.22;;
17496;SDS011;62150;43.582;1.456;2023-11-19T16:14:57;10.40;;;4.45;;
17496;SDS011;62150;43.582;1.456;2023-11-19T16:17:25;9.52;;;4.35;;
17496;SDS011;62150;43.582;1.456;2023-11-19T16:19:54;8.82;;;4.13;;
17496;SDS011;62150;43.582;1.456;2023-11-19T16:22:23;9.23;;;4.07;;
17496;SDS011;62150;43.582;1.456;2023-11-19T16:24:51;10.20;;;4.30;;
17496;SDS011;62150;43.582;1.456;2023-11-19T16:27:19;10.18;;;4.25;;
17496;SDS011;62150;43.582;1.456;2023-11-19T16:29:47;9.15;;;4.20;;
17496;SDS011;62150;43.582;1.456;2023-11-19T16:32:15;11.05;;;4.30;;
17496;SDS011;62150;43.582;1.456;2023-11-19T16:34:42;9.52;;;4.20;;
17496;SDS011;62150;43.582;1.456;2023-11-19T16:37:12;9.52;;;4.28;;
17496;SDS011;62150;43.582;1.456;2023-11-19T16:39:42;10.38;;;4.47;;
17496;SDS011;62150;43.582;1.456;2023-11-19T16:42:09;8.90;;;4.22;;
17496;SDS011;62150;43.582;1.456;2023-11-19T16:44:38;10.00;;;4.18;;
17496;SDS011;62150;43.582;1.456;2023-11-19T16:47:06;8.20;;;3.95;;
17496;SDS011;62150;43.582;1.456;2023-11-19T16:49:33;10.13;;;4.35;;
17496;SDS011;62150;43.582;1.456;2023-11-19T16:52:09;10.55;;;4.47;;
17496;SDS011;62150;43.582;1.456;2023-11-19T16:54:38;10.18;;;4.75;;
17496;SDS011;62150;43.582;1.456;2023-11-19T16:57:07;10.13;;;4.40;;
17496;SDS011;62150;43.582;1.456;2023-11-19T16:59:37;9.73;;;4.28;;
17496;SDS011;62150;43.582;1.456;2023-11-19T17:02:04;9.82;;;4.57;;
17496;SDS011;62150;43.582;1.456;2023-11-19T17:04:32;11.27;;;5.50;;
17496;SDS011;62150;43.582;1.456;2023-11-19T17:06:59;10.80;;;5.57;;
17496;SDS011;62150;43.582;1.456;2023-11-19T17:09:27;12.07;;;5.27;;
17496;SDS011;62150;43.582;1.456;2023-11-19T17:11:54;11.37;;;5.83;;
17496;SDS011;62150;43.582;1.456;2023-11-19T17:14:23;13.03;;;6.30;;
17496;SDS011;62150;43.582;1.456;2023-11-19T17:16:51;12.32;;;6.95;;
17496;SDS011;62150;43.582;1.456;2023-11-19T17:19:18;12.27;;;6.85;;
17496;SDS011;62150;43.582;1.456;2023-11-19T17:21:46;12.73;;;6.60;;
17496;SDS011;62150;43.582;1.456;2023-11-19T17:24:14;12.70;;;7.10;;
17496;SDS011;62150;43.582;1.456;2023-11-19T17:26:41;15.37;;;8.83;;
17496;SDS011;62150;43.582;1.456;2023-11-19T17:29:09;14.30;;;8.33;;
17496;SDS011;62150;43.582;1.456;2023-11-19T17:31:37;16.33;;;9.30;;
17496;SDS011;62150;43.582;1.456;2023-11-19T17:34:06;14.87;;;8.20;;
17496;SDS011;62150;43.582;1.456;2023-11-19T17:36:33;16.37;;;9.00;;
17496;SDS011;62150;43.582;1.456;2023-11-19T17:39:10;14.00;;;8.47;;
17496;SDS011;62150;43.582;1.456;2023-11-19T17:41:38;15.05;;;8.10;;
17496;SDS011;62150;43.582;1.456;2023-11-19T17:44:05;14.50;;;7.80;;
17496;SDS011;62150;43.582;1.456;2023-11-19T17:46:33;16.13;;;8.83;;
17496;SDS011;62150;43.582;1.456;2023-11-19T17:49:02;17.17;;;8.80;;
17496;SDS011;62150;43.582;1.456;2023-11-19T17:51:29;18.97;;;11.53;;
17496;SDS011;62150;43.582;1.456;2023-11-19T17:53:57;18.70;;;11.60;;
17496;SDS011;62150;43.582;1.456;2023-11-19T17:56:24;19.23;;;11.37;;
17496;SDS011;62150;43.582;1.456;2023-11-19T17:58:52;27.00;;;17.33;;
17496;SDS011;62150;43.582;1.456;2023-11-19T18:01:19;20.83;;;12.00;;
17496;SDS011;62150;43.582;1.456;2023-11-19T18:03:47;17.37;;;11.43;;
17496;SDS011;62150;43.582;1.456;2023-11-19T18:06:16;17.50;;;10.67;;
17496;SDS011;62150;43.582;1.456;2023-11-19T18:08:44;19.97;;;13.60;;
17496;SDS011;62150;43.582;1.456;2023-11-19T18:11:12;22.07;;;15.20;;
17496;SDS011;62150;43.582;1.456;2023-11-19T18:13:39;28.03;;;20.10;;
17496;SDS011;62150;43.582;1.456;2023-11-19T18:16:08;25.27;;;17.73;;
17496;SDS011;62150;43.582;1.456;2023-11-19T18:18:38;20.87;;;15.37;;
17496;SDS011;62150;43.582;1.456;2023-11-19T18:21:05;22.00;;;14.97;;
17496;SDS011;62150;43.582;1.456;2023-11-19T18:23:35;20.07;;;14.10;;
17496;SDS011;62150;43.582;1.456;2023-11-19T18:26:03;19.27;;;13.53;;
17496;SDS011;62150;43.582;1.456;2023-11-19T18:28:32;21.27;;;14.20;;
17496;SDS011;62150;43.582;1.456;2023-11-19T18:30:59;19.47;;;13.40;;
17496;SDS011;62150;43.582;1.456;2023-11-19T18:33:27;19.97;;;13.37;;
17496;SDS011;62150;43.582;1.456;2023-11-19T18:35:54;20.60;;;13.50;;
17496;SDS011;62150;43.582;1.456;2023-11-19T18:38:22;24.20;;;15.30;;
17496;SDS011;62150;43.582;1.456;2023-11-19T18:40:51;20.50;;;14.00;;
17496;SDS011;62150;43.582;1.456;2023-11-19T18:43:18;19.13;;;12.23;;
17496;SDS011;62150;43.582;1.456;2023-11-19T18:45:46;19.30;;;12.17;;
17496;SDS011;62150;43.582;1.456;2023-11-19T18:48:13;18.13;;;12.73;;
17496;SDS011;62150;43.582;1.456;2023-11-19T18:50:41;19.43;;;13.27;;
17496;SDS011;62150;43.582;1.456;2023-11-19T18:53:09;19.77;;;13.93;;
17496;SDS011;62150;43.582;1.456;2023-11-19T18:55:36;19.60;;;13.67;;
17496;SDS011;62150;43.582;1.456;2023-11-19T18:58:06;18.33;;;12.67;;
17496;SDS011;62150;43.582;1.456;2023-11-19T19:00:33;19.67;;;13.30;;
17496;SDS011;62150;43.582;1.456;2023-11-19T19:03:01;18.63;;;13.17;;
17496;SDS011;62150;43.582;1.456;2023-11-19T19:05:29;23.70;;;15.60;;
17496;SDS011;62150;43.582;1.456;2023-11-19T19:07:57;25.07;;;17.20;;
17496;SDS011;62150;43.582;1.456;2023-11-19T19:10:25;26.93;;;19.00;;
17496;SDS011;62150;43.582;1.456;2023-11-19T19:12:52;25.97;;;19.83;;
17496;SDS011;62150;43.582;1.456;2023-11-19T19:15:21;25.77;;;17.83;;
17496;SDS011;62150;43.582;1.456;2023-11-19T19:17:50;26.13;;;18.33;;